Аэропорт: Павлодар. Павлодар

ICAO: UASP

METAR:
2019-07-23 18:30:00
UASP 231830Z 28006MPS 9999 SCT041CB OVC190 18/16 Q1002 R21/0///70 NOSIG RMK QFE740/0987
METAR:
2019-07-23 17:00:00
TAF UASP 231700Z 2318/2403 26005MPS 1200 BR FU BKN004 OVC020CB TEMPO 2318/2322 VRB15MPS 1000 TSRA SQ BKN003 OVC011CB TEMPO 2322/2403 0400 TSRA FG BKN002 OVC011CB